Time;durP1;ratioP1;P1;durP2;ratioP2;P2;SDS_P1;SDS_P2;PMS_P1;PMS_P2;Temp;Humidity;BMP_temperature;BMP_pressure;BME280_temperature;BME280_humidity;BME280_pressure;Samples;Min_cycle;Max_cycle;Signal;HPM_P1;HPM_P2
2023/11/05 04:55:57;;;;;;;1.60;1.50;;;18.40;60.90;;;;;;6278402;22;20258;-88
2023/11/05 04:58:26;;;;;;;1.83;1.70;;;18.40;60.80;;;;;;6140090;23;20266;-87
2023/11/05 05:01:28;;;;;;;1.60;1.50;;;18.40;60.90;;;;;;6072658;23;20153;-87
2023/11/05 05:04:00;;;;;;;1.50;1.40;;;18.40;60.90;;;;;;6003115;23;20164;-87
2023/11/05 05:06:35;;;;;;;1.55;1.45;;;18.40;60.90;;;;;;6076998;23;20617;-87
2023/11/05 05:09:16;;;;;;;1.65;1.55;;;18.40;60.90;;;;;;6052323;23;20153;-87
2023/11/05 05:15:14;;;;;;;1.55;1.40;;;18.40;61.00;;;;;;6077233;23;20176;-88
2023/11/05 05:17:41;;;;;;;1.50;1.40;;;18.40;61.00;;;;;;5975517;23;20158;-87
2023/11/05 05:20:22;;;;;;;1.58;1.48;;;18.30;61.10;;;;;;5968656;24;20155;-88
2023/11/05 05:22:51;;;;;;;1.50;1.40;;;18.30;61.00;;;;;;5946219;24;20166;-88
2023/11/05 05:26:17;;;;;;;1.90;1.52;;;18.40;61.00;;;;;;5923843;24;20164;-88
2023/11/05 05:28:55;;;;;;;1.50;1.40;;;18.40;61.00;;;;;;5957528;23;20159;-86
2023/11/05 05:31:39;;;;;;;1.83;1.38;;;18.40;61.00;;;;;;5961125;24;20167;-86
2023/11/05 05:34:22;;;;;;;2.03;1.50;;;18.40;61.00;;;;;;5963597;24;20765;-88
2023/11/05 05:36:59;;;;;;;1.65;1.55;;;18.30;60.90;;;;;;5959193;24;20239;-87
2023/11/05 05:39:44;;;;;;;1.50;1.40;;;18.30;60.90;;;;;;5903559;24;20165;-87
2023/11/05 05:42:32;;;;;;;;;;;;;;;;;;;;;
2023/11/05 05:45:30;;;;;;;1.60;1.50;;;18.30;61.10;;;;;;5907855;24;20642;-88
2023/11/05 05:48:25;;;;;;;1.58;1.48;;;18.30;61.20;;;;;;5884897;24;20158;-88
2023/11/05 05:51:25;;;;;;;1.70;1.60;;;18.30;61.40;;;;;;5900741;24;20176;-88
2023/11/05 05:54:15;;;;;;;1.92;1.58;;;18.30;61.20;;;;;;5931625;24;20668;-88
2023/11/05 05:56:48;;;;;;;1.48;1.38;;;18.30;61.20;;;;;;5915923;24;20237;-87
2023/11/05 05:59:59;;;;;;;1.63;1.48;;;18.30;61.20;;;;;;5931401;24;20177;-86
2023/11/05 06:02:35;;;;;;;1.70;1.58;;;18.30;61.10;;;;;;5925096;24;20165;-88
2023/11/05 06:05:14;;;;;;;1.50;1.40;;;18.30;61.20;;;;;;5976065;24;20171;-88
2023/11/05 06:07:53;;;;;;;1.70;1.60;;;18.40;61.40;;;;;;5948425;24;20191;-87
2023/11/05 06:10:53;;;;;;;1.58;1.48;;;18.30;61.20;;;;;;5994152;23;20186;-88
2023/11/05 06:13:55;;;;;;;1.65;1.55;;;18.30;61.90;;;;;;5937786;24;20546;-88
2023/11/05 06:16:52;;;;;;;;;;;;;;;;;;;;;
2023/11/05 06:20:17;;;;;;;1.33;1.23;;;18.30;61.10;;;;;;5925829;24;20178;-88
2023/11/05 06:23:39;;;;;;;1.60;1.50;;;18.30;61.20;;;;;;5877603;24;20170;-88
2023/11/05 06:30:05;;;;;;;;;;;;;;;;;;;;;
2023/11/05 06:33:26;;;;;;;;;;;;;;;;;;;;;
2023/11/05 06:37:00;;;;;;;;;;;;;;;;;;;;;
2023/11/05 06:42:57;;;;;;;1.58;1.48;;;18.30;61.20;;;;;;5824251;24;20163;-88
2023/11/05 06:45:57;;;;;;;1.60;1.50;;;18.30;61.20;;;;;;5787743;24;20169;-88
2023/11/05 06:48:31;;;;;;;1.65;1.55;;;18.30;61.40;;;;;;5791399;24;20160;-88
2023/11/05 06:51:17;;;;;;;1.50;1.40;;;18.30;61.10;;;;;;5776734;24;20164;-87
2023/11/05 07:59:32;;;;;;;1.42;1.33;;;18.30;61.00;;;;;;6186883;23;20182;-86
2023/11/05 08:02:35;;;;;;;2.20;1.42;;;18.40;61.10;;;;;;6162928;23;20174;-88
2023/11/05 08:05:04;;;;;;;1.50;1.40;;;18.50;60.90;;;;;;6189720;23;20158;-86
2023/11/05 08:07:30;;;;;;;1.48;1.27;;;18.60;60.40;;;;;;6135429;23;20143;-87
2023/11/05 08:09:55;;;;;;;1.38;1.27;;;18.60;60.60;;;;;;6137879;23;20219;-87
2023/11/05 08:12:24;;;;;;;2.60;1.40;;;18.60;60.40;;;;;;6113942;23;20181;-86
2023/11/05 08:14:50;;;;;;;1.50;1.40;;;18.80;60.30;;;;;;6114930;23;20233;-87
2023/11/05 08:17:16;;;;;;;1.25;1.15;;;18.80;59.80;;;;;;6114123;23;20150;-87
2023/11/05 08:19:42;;;;;;;1.75;1.27;;;18.80;60.30;;;;;;6161238;23;20142;-87
2023/11/05 08:22:21;;;;;;;1.63;1.42;;;18.80;60.00;;;;;;6138316;23;20222;-87
2023/11/05 08:24:47;;;;;;;1.40;1.30;;;18.90;59.80;;;;;;6103293;23;20187;-86
2023/11/05 08:27:12;;;;;;;2.53;1.20;;;18.90;59.50;;;;;;6126321;23;20148;-85
2023/11/05 08:29:39;;;;;;;3.97;1.15;;;18.90;59.70;;;;;;6127605;23;20539;-85
2023/11/05 08:32:07;;;;;;;2.65;1.13;;;18.90;59.60;;;;;;6127586;23;20211;-85
2023/11/05 08:34:34;;;;;;;2.50;1.15;;;19.00;59.60;;;;;;6102290;23;20160;-85
2023/11/05 08:37:02;;;;;;;2.28;1.42;;;19.00;59.60;;;;;;6127669;23;20160;-85
2023/11/05 08:39:30;;;;;;;2.33;1.30;;;19.10;59.50;;;;;;6127815;23;20155;-87
2023/11/05 08:42:21;;;;;;;1.42;1.33;;;19.00;59.30;;;;;;6075038;23;20149;-86
2023/11/05 08:48:01;;;;;;;2.47;1.30;;;19.10;59.40;;;;;;5978231;23;20563;-87
2023/11/05 08:50:29;;;;;;;3.97;1.40;;;19.10;59.20;;;;;;5989096;23;20155;-85
2023/11/05 08:52:56;;;;;;;1.75;1.30;;;19.10;59.30;;;;;;6011319;23;20190;-84
2023/11/05 08:55:28;;;;;;;1.77;1.50;;;19.10;59.20;;;;;;6022697;23;20237;-86
2023/11/05 08:58:00;;;;;;;2.33;1.27;;;19.20;59.20;;;;;;6066503;23;20177;-86
2023/11/05 09:00:36;;;;;;;1.40;1.30;;;19.10;58.90;;;;;;6054755;23;20157;-87
2023/11/05 09:04:04;;;;;;;1.45;1.20;;;19.10;58.90;;;;;;6049575;23;20229;-89
2023/11/05 11:28:01;;;;;;;2.45;2.22;;;19.20;58.50;;;;;;6185890;23;20142;-88
2023/11/05 11:31:22;;;;;;;3.40;1.90;;;19.20;58.60;;;;;;6142204;23;20139;-88
2023/11/05 12:01:37;;;;;;;4.75;2.50;;;19.20;58.70;;;;;;6195324;23;20229;-88
2023/11/05 12:04:21;;;;;;;2.55;2.33;;;19.20;58.50;;;;;;6104964;23;20171;-90
2023/11/05 12:06:50;;;;;;;2.92;2.45;;;19.20;58.80;;;;;;6082955;23;20164;-86
2023/11/05 12:09:57;;;;;;;3.65;2.50;;;19.20;58.50;;;;;;6055901;23;20153;-86
2023/11/05 12:12:34;;;;;;;2.85;2.40;;;19.20;58.50;;;;;;6059183;23;20224;-86
2023/11/05 12:18:43;;;;;;;3.20;2.47;;;19.20;58.30;;;;;;5989063;23;20212;-86
2023/11/05 12:21:29;;;;;;;3.67;2.60;;;19.20;58.50;;;;;;5963595;23;20165;-87
2023/11/05 12:24:05;;;;;;;;;;;;;;;;;;;;;
2023/11/05 12:30:48;;;;;;;;;;;;;;;;;;;;;
2023/11/05 12:34:00;;;;;;;3.83;2.40;;;19.30;58.30;;;;;;5864891;24;20229;-87
2023/11/05 12:36:50;;;;;;;3.10;2.80;;;19.30;58.30;;;;;;5878634;24;20193;-86
2023/11/05 12:39:30;;;;;;;3.70;2.63;;;19.30;58.30;;;;;;5886283;24;20168;-87
2023/11/05 12:42:38;;;;;;;4.57;2.40;;;19.30;58.30;;;;;;5860825;24;20283;-88
2023/11/05 12:45:18;;;;;;;3.42;3.03;;;19.30;58.30;;;;;;5800724;24;20171;-88
2023/11/05 12:52:04;;;;;;;3.85;2.63;;;19.30;58.30;;;;;;5849657;24;20225;-86
2023/11/05 12:58:31;;;;;;;5.68;2.60;;;19.30;58.30;;;;;;5805573;24;20168;-87
2023/11/05 13:01:36;;;;;;;;;;;;;;;;;;;;;
2023/11/05 13:05:14;;;;;;;3.05;2.75;;;19.30;58.30;;;;;;5747316;24;20215;-87
2023/11/05 13:08:20;;;;;;;3.70;2.88;;;19.30;58.30;;;;;;5797443;24;20675;-86
2023/11/05 13:29:50;;;;;;;3.47;2.80;;;19.20;58.00;;;;;;5671878;25;20740;-87
2023/11/05 13:32:59;;;;;;;3.08;2.67;;;19.40;58.10;;;;;;5685559;25;20248;-87
2023/11/05 13:35:33;;;;;;;4.20;2.83;;;19.30;58.20;;;;;;5657885;25;20161;-86
2023/11/05 13:38:03;;;;;;;4.38;2.67;;;19.30;58.10;;;;;;5643835;25;20164;-86
2023/11/05 13:41:06;;;;;;;3.25;2.95;;;19.30;58.00;;;;;;5643541;25;20572;-87
2023/11/05 13:44:04;;;;;;;2.80;2.50;;;19.30;58.00;;;;;;5639264;25;20179;-86
2023/11/05 13:47:03;;;;;;;3.42;2.67;;;19.30;57.90;;;;;;5678961;25;20166;-87
2023/11/05 13:49:59;;;;;;;;;;;;;;;;;;;;;
2023/11/05 13:53:05;;;;;;;;;;;;;;;;;;;;;
2023/11/05 13:56:18;;;;;;;2.95;2.75;;;19.40;58.00;;;;;;5601139;25;20208;-88
2023/11/05 13:59:30;;;;;;;;;;;;;;;;;;;;;
2023/11/05 14:02:12;;;;;;;3.20;2.78;;;19.40;58.00;;;;;;5693854;25;20661;-88
2023/11/05 14:04:44;;;;;;;3.92;2.97;;;19.30;58.10;;;;;;5692606;25;20167;-88
2023/11/05 14:07:31;;;;;;;3.17;2.88;;;19.30;58.10;;;;;;5680534;25;20717;-89
2023/11/05 14:10:39;;;;;;;;;;;;;;;;;;;;;
2023/11/05 16:02:25;;;;;;;3.00;2.80;;;19.50;58.20;;;;;;6182441;23;20205;-86
2023/11/05 16:05:27;;;;;;;4.60;3.15;;;19.50;58.20;;;;;;6158823;23;20159;-87
2023/11/05 16:08:10;;;;;;;3.25;2.95;;;19.50;58.30;;;;;;6156699;23;20590;-85
2023/11/05 16:10:47;;;;;;;2.70;2.50;;;19.60;58.30;;;;;;6131576;23;20150;-87
2023/11/05 16:14:07;;;;;;;;;;;;;;;;;;;;;
2023/11/05 16:16:35;;;;;;;3.65;2.60;;;19.50;58.20;;;;;;6004271;23;20233;-88
2023/11/05 16:19:02;;;;;;;3.10;2.80;;;19.60;58.30;;;;;;6016555;23;20157;-88
2023/11/05 16:21:30;;;;;;;3.25;2.83;;;19.50;58.10;;;;;;5993200;23;20275;-85
2023/11/05 16:24:02;;;;;;;3.13;2.70;;;19.60;58.10;;;;;;5996299;23;20204;-86
2023/11/05 16:26:32;;;;;;;3.53;2.75;;;19.60;58.20;;;;;;5990861;23;20163;-87
2023/11/05 16:28:59;;;;;;;3.63;2.90;;;19.60;58.30;;;;;;5968035;23;20162;-87
2023/11/05 16:31:35;;;;;;;2.83;2.60;;;19.60;58.20;;;;;;6012749;23;20226;-88
2023/11/05 16:34:03;;;;;;;10.05;3.30;;;19.60;58.20;;;;;;5988628;23;20197;-87
2023/11/05 16:36:31;;;;;;;3.33;2.80;;;19.50;58.10;;;;;;5990133;23;20187;-88
2023/11/05 16:39:16;;;;;;;3.28;2.50;;;19.60;58.10;;;;;;6032728;23;20238;-89
2023/11/05 16:41:41;;;;;;;2.70;2.50;;;19.60;58.10;;;;;;5987652;23;20154;-88
2023/11/05 16:44:07;;;;;;;6.68;2.70;;;19.60;58.00;;;;;;6011561;23;20154;-87
2023/11/05 16:46:35;;;;;;;7.85;3.10;;;19.50;58.00;;;;;;5987161;23;20184;-87
2023/11/05 16:49:01;;;;;;;5.35;2.78;;;19.60;58.00;;;;;;6011070;23;20155;-88
2023/11/05 16:52:10;;;;;;;5.15;2.83;;;19.50;58.00;;;;;;6011571;23;20157;-88
2023/11/05 16:55:08;;;;;;;5.40;2.60;;;19.60;58.00;;;;;;6089526;23;20188;-87
2023/11/05 16:57:55;;;;;;;7.20;3.33;;;19.50;58.00;;;;;;6129346;23;20147;-88
2023/11/05 17:00:33;;;;;;;5.50;2.80;;;19.60;58.00;;;;;;6131675;23;20179;-86
2023/11/05 17:03:57;;;;;;;8.05;2.72;;;19.60;58.10;;;;;;6120706;23;20214;-86
2023/11/05 17:06:37;;;;;;;5.47;2.42;;;19.60;58.10;;;;;;5955690;24;20216;-88
2023/11/05 17:09:38;;;;;;;8.35;2.90;;;19.60;58.10;;;;;;5927599;24;20163;-88
2023/11/05 17:12:13;;;;;;;9.15;2.95;;;19.60;58.30;;;;;;5957115;24;20159;-88
2023/11/05 17:14:49;;;;;;;5.93;2.92;;;19.60;58.20;;;;;;5951479;24;20603;-88
2023/11/05 17:17:19;;;;;;;6.75;2.97;;;19.60;58.20;;;;;;5929387;24;20187;-88
2023/11/05 17:19:45;;;;;;;4.75;2.80;;;19.60;58.20;;;;;;5923465;24;20157;-87
2023/11/05 17:22:18;;;;;;;6.32;2.78;;;19.60;58.30;;;;;;5925397;24;20167;-87
2023/11/05 17:24:44;;;;;;;8.10;2.58;;;19.60;58.20;;;;;;5928682;24;20160;-87
2023/11/05 17:27:10;;;;;;;8.60;2.90;;;19.70;58.10;;;;;;5904442;24;20156;-87
2023/11/05 17:29:45;;;;;;;5.30;2.60;;;19.70;58.00;;;;;;5954151;24;20152;-87
2023/11/05 17:32:14;;;;;;;6.03;2.60;;;19.60;57.90;;;;;;5905276;24;20217;-86
2023/11/05 17:34:45;;;;;;;6.60;2.20;;;19.70;57.90;;;;;;5904888;24;20184;-86
2023/11/05 17:37:12;;;;;;;6.82;2.70;;;19.70;58.00;;;;;;5927426;24;20160;-86
2023/11/05 17:39:41;;;;;;;4.50;2.30;;;19.60;58.00;;;;;;5949331;24;20612;-85
2023/11/05 17:42:08;;;;;;;5.60;2.80;;;19.70;58.00;;;;;;5962890;24;20151;-87
2023/11/05 17:44:43;;;;;;;6.03;2.40;;;19.60;58.00;;;;;;5935570;24;20156;-87
2023/11/05 17:47:26;;;;;;;3.47;2.75;;;19.70;58.10;;;;;;5941671;24;20150;-88
2023/11/05 17:50:11;;;;;;;5.15;2.67;;;19.70;58.10;;;;;;5895802;24;20222;-88
2023/11/05 17:52:46;;;;;;;5.20;2.38;;;19.60;58.00;;;;;;5865282;24;20162;-86
2023/11/05 17:55:26;;;;;;;5.88;2.50;;;19.60;57.90;;;;;;5858169;24;20215;-87
2023/11/05 17:57:59;;;;;;;6.82;2.33;;;19.60;57.90;;;;;;5815850;24;20170;-86
2023/11/05 21:37:46;;;;;;;3.53;2.47;;;19.20;57.40;;;;;;6183691;22;20197;-86
2023/11/05 21:40:21;;;;;;;2.55;2.25;;;19.10;57.40;;;;;;6110617;23;20169;-85
2023/11/05 21:42:56;;;;;;;3.10;2.20;;;19.10;57.50;;;;;;6112081;23;20212;-87
2023/11/05 21:45:31;;;;;;;2.47;2.28;;;19.20;57.50;;;;;;6113383;23;20160;-86
2023/11/05 21:47:58;;;;;;;3.22;2.10;;;19.10;57.50;;;;;;6111454;23;20593;-87
2023/11/05 21:50:27;;;;;;;3.00;2.15;;;19.10;57.50;;;;;;6135817;23;20143;-86
2023/11/05 21:52:53;;;;;;;2.92;2.60;;;19.20;57.50;;;;;;6110376;23;20182;-87
2023/11/05 21:55:20;;;;;;;2.30;2.10;;;19.10;57.50;;;;;;6136395;23;20193;-86
2023/11/05 21:57:46;;;;;;;2.47;2.20;;;19.00;57.50;;;;;;6135978;23;20174;-87
2023/11/05 22:00:13;;;;;;;2.38;2.17;;;19.10;57.50;;;;;;6160307;23;20139;-85
2023/11/05 22:02:39;;;;;;;2.47;2.20;;;19.10;57.50;;;;;;6160622;23;20155;-87
2023/11/05 22:05:05;;;;;;;2.70;2.50;;;19.10;58.30;;;;;;6160384;23;20138;-84
2023/11/05 22:07:34;;;;;;;2.47;2.28;;;19.10;57.70;;;;;;6160007;23;20135;-87
2023/11/05 22:10:04;;;;;;;2.80;2.45;;;19.10;57.70;;;;;;6160415;23;20169;-87
2023/11/05 22:12:30;;;;;;;2.63;2.42;;;19.10;57.70;;;;;;6086616;23;20235;-87
2023/11/05 22:15:02;;;;;;;3.80;2.40;;;19.10;57.70;;;;;;6136003;23;20142;-88
2023/11/05 22:17:31;;;;;;;2.70;2.50;;;19.00;57.70;;;;;;6110812;23;20158;-88
2023/11/05 22:20:00;;;;;;;2.40;2.20;;;19.00;57.80;;;;;;6160333;23;20135;-86
2023/11/05 22:22:30;;;;;;;4.72;2.47;;;19.00;57.80;;;;;;6160104;23;20131;-86
2023/11/05 22:25:00;;;;;;;2.75;2.45;;;19.00;57.80;;;;;;6086350;23;20166;-87
2023/11/05 22:27:26;;;;;;;3.95;2.67;;;19.00;57.80;;;;;;6110633;23;20158;-87
2023/11/05 22:29:58;;;;;;;3.67;2.47;;;19.00;57.90;;;;;;6159630;23;20634;-88
2023/11/05 22:32:24;;;;;;;2.75;2.55;;;19.00;58.00;;;;;;6111850;23;20205;-86
2023/11/05 22:34:54;;;;;;;2.65;2.40;;;18.90;58.00;;;;;;6159940;23;20159;-87
2023/11/05 22:37:24;;;;;;;3.17;2.58;;;19.00;58.00;;;;;;6105062;23;20197;-87
2023/11/05 22:39:50;;;;;;;3.80;2.60;;;18.90;57.90;;;;;;6081247;23;20183;-88
2023/11/05 22:42:20;;;;;;;3.53;2.50;;;18.90;57.90;;;;;;6130560;23;20183;-86
2023/11/05 22:44:54;;;;;;;2.33;2.13;;;18.90;58.00;;;;;;6105602;23;20158;-87
2023/11/05 22:47:20;;;;;;;2.60;2.40;;;18.90;58.00;;;;;;6081129;23;20187;-85
2023/11/05 22:49:53;;;;;;;2.70;2.50;;;19.00;58.00;;;;;;6130301;23;20572;-85
2023/11/05 22:52:38;;;;;;;3.15;2.35;;;18.90;57.90;;;;;;6105633;23;20159;-86
2023/11/05 22:55:04;;;;;;;3.30;2.35;;;18.90;58.00;;;;;;6089413;23;20155;-86
2023/11/05 22:57:36;;;;;;;3.00;2.63;;;18.90;58.00;;;;;;6155292;23;20147;-85
2023/11/05 23:00:17;;;;;;;3.28;2.72;;;18.90;58.00;;;;;;6106504;23;20245;-86
2023/11/05 23:02:46;;;;;;;2.80;2.50;;;18.90;58.00;;;;;;6079458;23;20479;-89
2023/11/05 23:05:16;;;;;;;2.70;2.50;;;18.90;58.10;;;;;;6106190;23;20234;-86
2023/11/05 23:07:46;;;;;;;2.65;2.45;;;18.90;58.10;;;;;;6057302;23;20187;-85
2023/11/05 23:10:12;;;;;;;3.13;2.50;;;18.90;58.10;;;;;;6081136;23;20155;-86
2023/11/05 23:12:38;;;;;;;2.83;2.63;;;18.90;58.20;;;;;;6130394;23;20210;-86
2023/11/05 23:15:09;;;;;;;2.90;2.70;;;18.80;58.10;;;;;;6130109;23;20144;-86
2023/11/05 23:17:35;;;;;;;4.45;2.65;;;18.80;58.20;;;;;;6081291;23;20162;-88
2023/11/05 23:20:02;;;;;;;4.10;2.78;;;18.80;58.20;;;;;;6105624;23;20478;-87
2023/11/05 23:22:28;;;;;;;5.20;2.85;;;18.80;58.10;;;;;;6156489;23;20132;-86
2023/11/05 23:24:57;;;;;;;2.88;2.40;;;18.80;58.10;;;;;;6130877;23;20173;-87
2023/11/05 23:27:27;;;;;;;2.50;2.30;;;18.80;58.20;;;;;;6107023;23;20456;-87
2023/11/05 23:29:54;;;;;;;3.33;2.50;;;18.80;58.20;;;;;;6081060;23;20155;-86
2023/11/05 23:32:24;;;;;;;2.92;2.33;;;18.80;58.30;;;;;;6154814;23;20456;-87
2023/11/05 23:34:54;;;;;;;2.60;2.40;;;18.80;58.30;;;;;;6130068;23;20163;-86
2023/11/05 23:37:27;;;;;;;2.83;2.53;;;18.80;58.30;;;;;;6100052;23;20197;-87
2023/11/05 23:39:53;;;;;;;2.70;2.50;;;18.80;58.30;;;;;;6087815;23;20157;-87
2023/11/05 23:42:19;;;;;;;3.38;2.70;;;18.80;58.30;;;;;;6135808;23;20147;-86
2023/11/05 23:44:49;;;;;;;2.80;2.60;;;18.80;58.30;;;;;;6187744;23;20622;-87
2023/11/05 23:47:15;;;;;;;3.55;2.63;;;18.80;58.30;;;;;;6087949;23;20154;-88
2023/11/05 23:49:41;;;;;;;2.72;2.50;;;18.70;58.30;;;;;;6161293;23;20486;-87
2023/11/05 23:52:14;;;;;;;2.72;2.53;;;18.80;59.00;;;;;;6161476;23;20182;-86
2023/11/05 23:54:49;;;;;;;2.90;2.58;;;18.80;58.40;;;;;;6113538;23;20245;-86
2023/11/05 23:57:18;;;;;;;2.67;2.47;;;18.80;58.30;;;;;;6161264;23;20138;-87
2023/11/05 23:59:48;;;;;;;2.83;2.63;;;18.90;58.40;;;;;;6137012;23;20222;-85
